Delta Virtual Airport Information Service

Kuwait International Airport

ICAO: OKBK Country: Kuwait
Latitude: 29.2266 Longitude: 47.9689
Latest Arrival : DAC2798 (VCBI-OKBK) Latest Departure : DAC5828 (OKBK-LPFR)


WX CaptureLIVE
Data provided by noaa.gov | Fetched at 08:40:21

METAR : OKBK 041300Z 34014KT CAVOK 47/07 Q0992 NOSIG

TAF : OKBK 041045Z 0412/0518 34008G18KT 7000 NSC


Runway Data for OKBK
Data provided by openaviationdata.com

Runway ID Mag Var Hdg Length Elevation Surface ILS Freq ILS Id ILS Slope
15L 2 152° 11509 ft 168 ft Asphalt 110.1 IKIC 3
15R 2 152° 11181 ft 168 ft Concrete 111.3 IKIB 3
33L 2 332° 11181 ft 168 ft Concrete 109.5 IKIA 3
33R 2 332° 11509 ft 168 ft Asphalt 110.5 IKID 3

Kuwait International Airport, Kuwait
Use only for reference purposes



Not for navigational purposes.